createdAt,value
2023-11-30T00:00:43.610Z,100482.78
2023-11-30T00:03:49.410Z,100471.75
2023-11-30T00:06:55.284Z,100484.59
2023-11-30T00:10:00.828Z,100474.66
2023-11-30T00:13:06.184Z,100476.44
2023-11-30T00:16:12.093Z,100466.72
2023-11-30T00:19:17.908Z,100463.63
2023-11-30T00:22:23.851Z,100470.56
2023-11-30T00:25:30.098Z,100461.38
2023-11-30T00:28:35.829Z,100470.69
2023-11-30T00:31:42.454Z,100465.03
2023-11-30T00:34:49.081Z,100464.63
2023-11-30T00:37:54.495Z,100461.41
2023-11-30T00:41:00.252Z,100459.72
2023-11-30T00:44:05.980Z,100448.34
2023-11-30T00:47:11.551Z,100454.06
2023-11-30T00:50:17.276Z,100441.09
2023-11-30T00:53:23.015Z,100439.59
2023-11-30T00:56:28.755Z,100446.28
2023-11-30T00:59:34.561Z,100447.91
2023-11-30T01:02:41.223Z,100444.28
2023-11-30T01:05:47.614Z,100443.03
2023-11-30T01:08:53.287Z,100447.16
2023-11-30T01:11:58.920Z,100453.44
2023-11-30T01:15:05.603Z,100458.38
2023-11-30T01:18:14.201Z,100461.41
2023-11-30T01:21:19.935Z,100458.56
2023-11-30T01:24:25.682Z,100469.72
2023-11-30T01:27:30.906Z,100477.88
2023-11-30T01:30:36.322Z,100470.94
2023-11-30T01:33:42.138Z,100467.94
2023-11-30T01:36:47.400Z,100471.63
2023-11-30T01:39:52.942Z,100468.94
2023-11-30T01:42:58.794Z,100469.97
2023-11-30T01:46:05.036Z,100458.34
2023-11-30T01:49:10.778Z,100460.38
2023-11-30T01:52:16.533Z,100456.09
2023-11-30T01:55:22.996Z,100461.22
2023-11-30T01:58:28.660Z,100460.59
2023-11-30T02:01:36.452Z,100453.03
2023-11-30T02:04:43.786Z,100452.00
2023-11-30T02:07:49.863Z,100452.78
2023-11-30T02:10:57.091Z,100438.47
2023-11-30T02:14:04.541Z,100431.97
2023-11-30T02:17:10.298Z,100434.06
2023-11-30T02:20:16.049Z,100429.63
2023-11-30T02:23:22.025Z,100428.59
2023-11-30T02:26:27.792Z,100421.25
2023-11-30T02:29:33.265Z,100413.06
2023-11-30T02:32:39.045Z,100404.81
2023-11-30T02:35:44.876Z,100396.56
2023-11-30T02:38:50.649Z,100390.59
2023-11-30T02:41:56.399Z,100392.44
2023-11-30T02:45:02.290Z,100383.38
2023-11-30T02:48:08.276Z,100388.16
2023-11-30T02:51:14.112Z,100375.53
2023-11-30T02:54:21.015Z,100365.59
2023-11-30T02:57:27.048Z,100372.13
2023-11-30T03:00:32.933Z,100365.00
2023-11-30T03:03:38.565Z,100361.75
2023-11-30T03:06:44.602Z,100369.25
2023-11-30T03:09:50.323Z,100365.19
2023-11-30T03:12:56.274Z,100377.03
2023-11-30T03:16:02.097Z,100375.94
2023-11-30T03:19:16.335Z,100367.41
2023-11-30T03:22:23.449Z,100362.38
2023-11-30T03:25:29.091Z,100351.19
2023-11-30T03:28:34.890Z,100344.75
2023-11-30T03:31:41.043Z,100340.34
2023-11-30T03:34:48.380Z,100339.50
2023-11-30T03:37:54.349Z,100335.25
2023-11-30T03:41:01.078Z,100342.44
2023-11-30T03:44:06.767Z,100342.66
2023-11-30T03:47:12.151Z,100338.00
2023-11-30T03:50:18.004Z,100327.63
2023-11-30T03:53:23.544Z,100335.16
2023-11-30T03:56:32.547Z,100335.84
2023-11-30T03:59:38.098Z,100345.81
2023-11-30T04:02:44.666Z,100344.97
2023-11-30T04:05:50.558Z,100347.28
2023-11-30T04:08:56.217Z,100341.72
2023-11-30T04:12:01.736Z,100329.53
2023-11-30T04:15:08.221Z,100337.03
2023-11-30T04:18:13.983Z,100338.84
2023-11-30T04:21:22.532Z,100343.94
2023-11-30T04:24:28.486Z,100330.97
2023-11-30T04:27:33.979Z,100336.47
2023-11-30T04:30:39.772Z,100334.00
2023-11-30T04:33:45.409Z,100335.25
2023-11-30T04:36:51.069Z,100328.34
2023-11-30T04:39:58.272Z,100327.53
2023-11-30T04:43:04.223Z,100329.75
2023-11-30T04:46:10.430Z,100341.31
2023-11-30T04:49:16.317Z,100332.19
2023-11-30T04:52:22.250Z,100335.69
2023-11-30T04:55:27.500Z,100335.25
2023-11-30T04:58:33.576Z,100345.22
2023-11-30T05:01:38.981Z,100350.28
2023-11-30T05:04:44.750Z,100347.88
2023-11-30T05:07:50.775Z,100347.91
2023-11-30T05:10:56.885Z,100347.66
2023-11-30T05:14:03.164Z,100352.59
2023-11-30T05:17:08.872Z,100353.38
2023-11-30T05:20:14.693Z,100346.47
2023-11-30T05:23:20.680Z,100350.72
2023-11-30T05:26:26.516Z,100346.66
2023-11-30T05:29:32.222Z,100340.34
2023-11-30T05:32:37.386Z,100333.50
2023-11-30T05:35:42.976Z,100330.03
2023-11-30T05:38:48.350Z,100324.25
2023-11-30T05:41:54.784Z,100316.75
2023-11-30T05:44:59.934Z,100320.25
2023-11-30T05:48:05.593Z,100317.81
2023-11-30T05:51:11.098Z,100317.03
2023-11-30T05:54:17.299Z,100318.19
2023-11-30T05:57:23.113Z,100316.41
2023-11-30T06:00:28.585Z,100319.03
2023-11-30T06:03:34.185Z,100320.25
2023-11-30T06:06:39.669Z,100313.72
2023-11-30T06:09:45.269Z,100313.50
2023-11-30T06:12:50.696Z,100291.59
2023-11-30T06:15:56.238Z,100294.00
2023-11-30T06:19:01.878Z,100305.75
2023-11-30T06:22:08.123Z,100294.13
2023-11-30T06:25:13.793Z,100298.44
2023-11-30T06:28:21.142Z,100297.25
2023-11-30T06:31:26.233Z,100292.16
2023-11-30T06:34:35.000Z,100292.34
2023-11-30T06:37:40.751Z,100291.34
2023-11-30T06:40:46.618Z,100284.41
2023-11-30T06:43:52.388Z,100294.00
2023-11-30T06:46:57.680Z,100288.25
2023-11-30T06:50:04.818Z,100277.50
2023-11-30T06:53:10.753Z,100264.28
2023-11-30T06:56:16.020Z,100261.44
2023-11-30T06:59:21.170Z,100270.16
2023-11-30T07:02:26.463Z,100262.22
2023-11-30T07:05:31.700Z,100267.28
2023-11-30T07:08:36.971Z,100269.69
2023-11-30T07:11:43.971Z,100272.97
2023-11-30T07:14:51.549Z,100257.47
2023-11-30T07:17:57.511Z,100269.47
2023-11-30T07:21:02.764Z,100273.75
2023-11-30T07:24:11.522Z,100264.75
2023-11-30T07:27:19.696Z,100268.66
2023-11-30T07:30:25.125Z,100270.84
2023-11-30T07:33:30.881Z,100268.41
2023-11-30T07:36:36.073Z,100270.44
2023-11-30T07:39:41.386Z,100262.91
2023-11-30T07:42:47.408Z,100272.69
2023-11-30T07:45:52.645Z,100273.09
2023-11-30T07:48:58.123Z,100269.69
2023-11-30T07:52:03.793Z,100269.09
2023-11-30T07:55:09.563Z,100271.91
2023-11-30T07:58:14.888Z,100274.53
2023-11-30T08:01:20.057Z,100287.19
2023-11-30T08:04:25.994Z,100289.81
2023-11-30T08:07:30.991Z,100276.59
2023-11-30T08:10:36.247Z,100285.91
2023-11-30T08:13:42.136Z,100282.66
2023-11-30T08:16:47.775Z,100287.75
2023-11-30T08:19:53.630Z,100279.16
2023-11-30T08:22:59.407Z,100288.97
2023-11-30T08:26:05.456Z,100297.31
2023-11-30T08:29:10.769Z,100286.53
2023-11-30T21:10:15.665Z,99967.47
2023-11-30T21:13:21.086Z,99971.34
2023-11-30T21:16:26.403Z,99979.53
2023-11-30T21:19:32.423Z,99964.44
2023-11-30T21:22:37.900Z,99956.19
2023-11-30T21:25:44.638Z,99938.66
2023-11-30T21:28:49.880Z,99929.75
2023-11-30T21:31:55.898Z,99944.63
2023-11-30T21:35:01.783Z,99957.22
2023-11-30T21:38:07.383Z,99947.81
2023-11-30T21:41:16.754Z,99956.03
2023-11-30T21:44:22.251Z,99970.88
2023-11-30T21:47:27.973Z,99961.53
2023-11-30T21:50:33.318Z,99962.66
2023-11-30T21:53:38.970Z,99959.84
2023-11-30T21:56:44.402Z,99970.72
2023-11-30T21:59:49.909Z,99956.47
2023-11-30T22:02:55.817Z,99949.34
2023-11-30T22:06:01.137Z,99952.50
2023-11-30T22:09:07.295Z,99968.13
2023-11-30T22:12:12.646Z,99964.31
2023-11-30T22:15:19.923Z,99948.06
2023-11-30T22:18:25.728Z,99946.44
2023-11-30T22:21:32.336Z,99945.34
2023-11-30T22:24:38.917Z,99949.88
2023-11-30T22:27:44.482Z,99942.88
2023-11-30T22:30:49.880Z,99934.00
2023-11-30T22:33:55.279Z,99929.94
2023-11-30T22:37:02.368Z,99925.69
2023-11-30T22:40:08.644Z,99915.72
2023-11-30T22:43:14.421Z,99920.94
2023-11-30T22:46:20.811Z,99918.53
2023-11-30T22:49:26.621Z,99911.91
2023-11-30T22:52:32.416Z,99915.44
2023-11-30T22:55:38.044Z,99905.44
2023-11-30T22:58:43.458Z,99895.09
2023-11-30T23:01:49.454Z,99928.22
2023-11-30T23:04:55.602Z,99915.97
2023-11-30T23:08:01.110Z,99933.22
2023-11-30T23:11:08.571Z,99934.91
2023-11-30T23:14:14.599Z,99920.22
2023-11-30T23:17:21.285Z,99922.41
2023-11-30T23:20:27.737Z,99929.31
2023-11-30T23:23:32.770Z,99921.09
2023-11-30T23:26:38.032Z,99909.78
2023-11-30T23:29:44.088Z,99890.84
2023-11-30T23:32:52.384Z,99896.84
2023-11-30T23:35:58.593Z,99892.16
2023-11-30T23:39:05.621Z,99906.72
2023-11-30T23:42:13.192Z,99899.19
2023-11-30T23:45:19.102Z,99874.69
2023-11-30T23:48:24.499Z,99871.13
2023-11-30T23:51:30.354Z,99871.59
2023-11-30T23:54:35.660Z,99881.00
2023-11-30T23:57:41.020Z,99890.16
